Time;durP1;ratioP1;P1;durP2;ratioP2;P2;SDS_P1;SDS_P2;PMS_P1;PMS_P2;Temp;Humidity;BMP_temperature;BMP_pressure;BME280_temperature;BME280_humidity;BME280_pressure;Samples;Min_cycle;Max_cycle;Signal;HPM_P1;HPM_P2
2021/03/10 00:01:45;;;;;;;34.67;12.63;;;;;;;18.89;24.94;156090.78;1599657;90;21366;-66
2021/03/10 00:04:18;;;;;;;31.45;12.13;;;;;;;18.70;25.01;156040.63;1599752;90;21872;-67
2021/03/10 00:06:51;;;;;;;28.38;11.55;;;;;;;18.72;24.99;156045.91;1599314;89;22469;-67
2021/03/10 00:09:25;;;;;;;26.80;11.10;;;;;;;18.73;24.81;156048.56;1599012;90;21338;-66
2021/03/10 00:11:57;;;;;;;20.62;8.13;;;;;;;18.74;24.83;156052.50;1588949;90;21405;-67
2021/03/10 00:14:29;;;;;;;20.52;8.33;;;;;;;18.67;24.72;156032.69;1605796;89;21751;-67
2021/03/10 00:17:01;;;;;;;19.70;9.28;;;;;;;18.57;24.72;156007.64;1598619;87;21265;-67
2021/03/10 00:19:34;;;;;;;12.88;6.37;;;;;;;18.46;24.71;155977.25;1606877;89;21208;-67
2021/03/10 00:22:06;;;;;;;14.55;6.50;;;;;;;18.48;24.56;155982.53;1582096;90;21211;-67
2021/03/10 00:24:40;;;;;;;16.40;6.80;;;;;;;18.46;24.53;155978.55;1580472;91;21382;-67
2021/03/10 00:27:23;;;;;;;18.00;6.97;;;;;;;18.47;24.60;155979.89;1587864;89;21377;-64
2021/03/10 00:29:46;;;;;;;20.02;8.28;;;;;;;18.33;24.78;155942.92;1585757;89;21231;-64
2021/03/10 00:32:21;;;;;;;14.40;6.75;;;;;;;18.32;24.92;155940.28;1617587;89;21205;-64
2021/03/10 00:34:54;;;;;;;18.65;7.78;;;;;;;18.30;24.95;155935.00;1605922;89;21327;-64
2021/03/10 00:37:26;;;;;;;17.75;8.10;;;;;;;18.47;24.92;155981.19;1606972;89;21461;-64
2021/03/10 00:39:59;;;;;;;19.50;7.95;;;;;;;18.26;24.84;155924.47;1606696;89;21335;-64
2021/03/10 00:42:31;;;;;;;20.05;7.35;;;;;;;18.23;24.82;155916.53;1601967;89;21319;-64
2021/03/10 00:45:04;;;;;;;18.15;7.20;;;;;;;18.20;24.73;155908.55;1579902;89;21184;-64
2021/03/10 00:47:37;;;;;;;14.18;6.58;;;;;;;18.07;24.98;155874.23;1572616;90;21283;-64
2021/03/10 00:50:11;;;;;;;23.55;8.98;;;;;;;18.09;24.91;155879.53;1564056;92;21258;-64
2021/03/10 00:52:43;;;;;;;16.97;7.00;;;;;;;18.08;24.85;155876.87;1589997;89;21212;-64
2021/03/10 00:55:15;;;;;;;20.97;7.35;;;;;;;18.08;24.94;155876.87;1564021;92;21277;-64
2021/03/10 00:57:47;;;;;;;18.90;8.03;;;;;;;18.07;24.91;155872.94;1595539;89;21423;-64
2021/03/10 01:00:21;;;;;;;20.80;8.48;;;;;;;18.13;24.97;155890.09;1606104;89;21399;-65
2021/03/10 01:02:53;;;;;;;21.62;8.03;;;;;;;18.09;25.04;155879.53;1596817;89;21312;-64
2021/03/10 01:05:26;;;;;;;23.87;9.63;;;;;;;18.06;25.00;155871.59;1590343;89;21238;-64
2021/03/10 01:07:58;;;;;;;27.85;8.63;;;;;;;18.01;25.10;155857.08;1572082;90;21369;-64
2021/03/10 01:10:31;;;;;;;26.07;9.58;;;;;;;18.00;25.09;155855.78;1564487;90;21235;-64
2021/03/10 01:13:03;;;;;;;24.30;9.75;;;;;;;18.00;25.08;155855.78;1592447;89;21893;-64
2021/03/10 01:15:35;;;;;;;26.62;8.95;;;;;;;18.54;24.79;155999.70;1606541;89;21367;-64
2021/03/10 01:18:08;;;;;;;28.12;9.15;;;;;;;18.70;24.74;156040.63;1581571;90;21289;-64
2021/03/10 01:20:40;;;;;;;31.45;11.28;;;;;;;18.66;24.73;156031.39;1617380;88;21326;-64
2021/03/10 01:23:13;;;;;;;33.83;12.15;;;;;;;18.63;24.82;156023.45;1578184;89;21274;-64
2021/03/10 01:25:46;;;;;;;38.25;15.05;;;;;;;18.59;24.86;156012.88;1612237;88;21269;-64
2021/03/10 01:28:18;;;;;;;40.92;15.55;;;;;;;18.53;24.97;155997.06;1591121;89;21203;-64
2021/03/10 01:30:51;;;;;;;40.28;13.98;;;;;;;18.48;25.08;155983.83;1595849;88;21266;-64
2021/03/10 01:33:24;;;;;;;35.52;14.53;;;;;;;18.43;25.17;155969.31;1583737;89;21381;-65
2021/03/10 01:35:58;;;;;;;38.10;13.98;;;;;;;18.45;25.24;155974.61;1622425;88;21352;-64
2021/03/10 01:38:30;;;;;;;39.60;14.65;;;;;;;18.42;25.18;155966.67;1608367;89;21258;-64
2021/03/10 01:41:03;;;;;;;33.55;12.37;;;;;;;18.40;25.11;155961.44;1622995;88;21420;-64
2021/03/10 01:43:35;;;;;;;40.20;13.60;;;;;;;18.31;25.13;155937.64;1610075;89;21223;-64
2021/03/10 01:46:08;;;;;;;34.60;13.18;;;;;;;18.24;25.13;155919.19;1598381;88;21372;-64
2021/03/10 01:48:43;;;;;;;38.80;12.80;;;;;;;18.16;25.14;155898.03;1602923;88;21200;-64
2021/03/10 01:51:16;;;;;;;42.10;13.58;;;;;;;18.11;25.19;155884.81;1595712;90;21230;-66
2021/03/10 01:53:48;;;;;;;41.23;13.78;;;;;;;18.10;25.21;155882.17;1587148;89;21283;-67
2021/03/10 01:56:20;;;;;;;39.33;12.75;;;;;;;18.08;25.25;155876.87;1610606;88;21758;-67
2021/03/10 01:58:56;;;;;;;24.92;10.38;;;;;;;18.07;25.18;155872.94;1594705;89;21223;-67
2021/03/10 02:01:28;;;;;;;23.83;9.25;;;;;;;17.93;25.27;155837.33;1622620;88;21388;-67
2021/03/10 02:04:07;;;;;;;23.15;9.45;;;;;;;17.93;25.28;155835.98;1611812;89;21181;-66
2021/03/10 02:07:12;;;;;;;23.90;9.88;;;;;;;17.97;25.28;155847.84;1595150;90;21238;-67
2021/03/10 02:09:58;;;;;;;27.77;10.50;;;;;;;17.95;25.38;155842.56;1603279;89;21264;-67
2021/03/10 02:12:38;;;;;;;35.73;12.98;;;;;;;17.99;25.42;155851.84;1578801;90;21823;-67
2021/03/10 02:15:18;;;;;;;37.07;13.27;;;;;;;17.98;25.41;155850.50;1593517;90;21274;-67
2021/03/10 02:17:55;;;;;;;40.03;14.07;;;;;;;17.94;25.43;155838.63;1612524;88;21800;-67
2021/03/10 02:20:39;;;;;;;52.08;15.88;;;;;;;17.99;25.43;155851.84;1585700;90;21384;-67
2021/03/10 02:23:29;;;;;;;44.60;15.93;;;;;;;18.01;25.51;155857.08;1584385;90;21429;-67
2021/03/10 02:26:34;;;;;;;47.73;16.52;;;;;;;18.12;25.47;155887.45;1585071;90;21248;-67
2021/03/10 02:29:10;;;;;;;57.78;18.90;;;;;;;18.13;25.41;155890.09;1584674;90;21435;-67
2021/03/10 02:31:50;;;;;;;78.33;23.27;;;;;;;18.14;25.46;155892.73;1577788;90;21719;-67
2021/03/10 02:34:22;;;;;;;57.47;18.97;;;;;;;18.11;25.43;155884.81;1572810;90;21217;-67
2021/03/10 02:36:56;;;;;;;92.17;29.35;;;;;;;18.04;25.42;155866.36;1593676;90;21263;-67
2021/03/10 02:39:29;;;;;;;94.13;29.00;;;;;;;17.97;25.50;155847.84;1569546;91;21257;-66
2021/03/10 02:42:02;;;;;;;97.53;30.68;;;;;;;17.88;25.58;155824.11;1577522;90;21525;-67
2021/03/10 02:44:34;;;;;;;113.10;34.27;;;;;;;17.91;25.57;155830.70;1559498;92;21260;-66
2021/03/10 02:47:06;;;;;;;116.30;35.65;;;;;;;17.94;25.55;155839.92;1579036;90;21390;-67
2021/03/10 02:49:39;;;;;;;113.28;35.58;;;;;;;17.97;25.51;155847.84;1574539;90;21429;-67
2021/03/10 02:52:11;;;;;;;100.00;33.78;;;;;;;17.94;25.55;155839.92;1575742;90;21273;-67
2021/03/10 02:54:44;;;;;;;115.67;35.85;;;;;;;17.98;25.51;155849.20;1543109;92;21375;-67
2021/03/10 02:57:16;;;;;;;116.30;35.48;;;;;;;18.07;25.42;155874.23;1563637;90;21301;-67
2021/03/10 02:59:48;;;;;;;106.60;33.88;;;;;;;18.13;25.38;155891.39;1573683;90;21354;-67
2021/03/10 03:02:21;;;;;;;103.38;31.55;;;;;;;18.17;25.33;155900.63;1571016;90;21494;-66
2021/03/10 03:04:54;;;;;;;116.37;35.40;;;;;;;18.24;25.29;155919.19;1586369;90;21377;-66
2021/03/10 03:07:27;;;;;;;108.25;30.45;;;;;;;18.20;25.26;155908.55;1581180;90;21732;-67
2021/03/10 03:10:01;;;;;;;92.35;29.18;;;;;;;18.19;25.23;155905.91;1539656;93;21253;-67
2021/03/10 03:12:33;;;;;;;94.30;29.07;;;;;;;18.15;25.24;155896.69;1566941;90;21271;-67
2021/03/10 03:15:07;;;;;;;90.57;31.82;;;;;;;18.19;25.22;155905.91;1564941;90;21404;-67
2021/03/10 03:17:39;;;;;;;101.22;32.05;;;;;;;18.22;25.16;155913.89;1563312;92;21242;-67
2021/03/10 03:20:13;;;;;;;101.95;30.72;;;;;;;18.16;25.22;155898.03;1578873;89;21503;-67
2021/03/10 03:22:49;;;;;;;94.60;29.55;;;;;;;18.32;25.08;155941.63;1618138;89;21890;-67
2021/03/10 03:25:26;;;;;;;93.47;29.98;;;;;;;18.29;25.12;155932.34;1617678;89;21229;-67
2021/03/10 03:28:02;;;;;;;82.67;27.22;;;;;;;18.33;25.10;155942.92;1590927;90;21211;-67
2021/03/10 03:30:38;;;;;;;119.90;37.78;;;;;;;18.30;25.08;155936.34;1633643;88;21191;-67
2021/03/10 03:33:17;;;;;;;171.43;50.73;;;;;;;18.31;25.05;155938.98;1613287;88;21961;-67
2021/03/10 03:35:55;;;;;;;167.35;53.02;;;;;;;18.25;25.04;155923.12;1617548;88;21404;-67
2021/03/10 03:38:28;;;;;;;175.07;53.42;;;;;;;18.30;25.02;155935.00;1611854;88;21246;-67
2021/03/10 03:41:01;;;;;;;156.57;47.17;;;;;;;18.18;25.07;155904.61;1616921;89;21802;-67
2021/03/10 03:43:33;;;;;;;148.43;48.17;;;;;;;18.20;25.07;155908.55;1613698;88;21852;-67
2021/03/10 03:46:06;;;;;;;164.00;46.83;;;;;;;18.26;25.01;155925.77;1607712;89;21226;-67
2021/03/10 03:48:39;;;;;;;153.05;49.67;;;;;;;18.19;25.00;155905.91;1616264;89;21261;-67
2021/03/10 03:51:27;;;;;;;167.28;53.87;;;;;;;18.19;25.07;155905.91;1600447;89;21208;-67
2021/03/10 03:54:04;;;;;;;210.97;59.77;;;;;;;18.06;25.09;155871.59;1609448;89;21292;-67
2021/03/10 03:56:37;;;;;;;231.57;67.05;;;;;;;18.01;25.20;155857.08;1600374;88;21761;-67
2021/03/10 03:59:09;;;;;;;180.18;59.13;;;;;;;17.98;25.15;155850.50;1635526;88;21325;-67
2021/03/10 04:01:42;;;;;;;161.52;50.73;;;;;;;17.92;25.10;155834.69;1628934;87;21181;-67
2021/03/10 04:04:15;;;;;;;157.43;48.15;;;;;;;17.82;25.10;155808.31;1572668;90;21443;-67
2021/03/10 04:06:51;;;;;;;157.60;46.85;;;;;;;17.77;25.08;155793.75;1616760;89;21396;-67
2021/03/10 04:09:24;;;;;;;118.17;38.00;;;;;;;17.70;25.11;155775.30;1635594;88;21288;-66
2021/03/10 04:11:58;;;;;;;68.47;23.42;;;;;;;17.59;25.04;155747.58;1591150;90;21219;-66
2021/03/10 04:14:30;;;;;;;47.67;17.12;;;;;;;17.44;25.02;155706.70;1590419;90;21397;-67
2021/03/10 04:17:03;;;;;;;49.03;18.50;;;;;;;17.30;25.09;155669.81;1590939;89;21861;-67
2021/03/10 04:19:35;;;;;;;45.98;17.30;;;;;;;17.26;25.08;155659.20;1591236;90;21306;-67
2021/03/10 04:22:08;;;;;;;39.35;15.08;;;;;;;17.18;25.06;155639.41;1588031;90;21248;-66
2021/03/10 04:24:40;;;;;;;42.58;16.90;;;;;;;17.09;25.20;155614.34;1595354;90;21342;-66
2021/03/10 04:27:15;;;;;;;38.00;14.75;;;;;;;16.99;25.30;155586.69;1594650;90;21896;-67
2021/03/10 04:29:47;;;;;;;46.73;15.08;;;;;;;17.05;25.29;155603.83;1619229;88;21233;-67
2021/03/10 04:32:20;;;;;;;44.53;17.12;;;;;;;17.04;25.42;155601.19;1612885;88;21205;-67
2021/03/10 04:34:53;;;;;;;45.65;16.25;;;;;;;17.06;25.46;155606.47;1630070;87;21270;-67
2021/03/10 04:37:25;;;;;;;57.62;19.10;;;;;;;17.06;25.46;155605.13;1583776;89;21405;-66
2021/03/10 04:39:58;;;;;;;49.90;18.35;;;;;;;16.99;25.48;155586.69;1596009;90;21242;-67
2021/03/10 04:42:30;;;;;;;51.73;17.92;;;;;;;16.87;25.63;155555.05;1598278;89;21231;-67
2021/03/10 04:45:03;;;;;;;50.92;19.05;;;;;;;16.99;25.58;155586.69;1622125;88;21241;-67
2021/03/10 04:47:36;;;;;;;51.45;18.65;;;;;;;17.06;25.58;155605.13;1610169;89;21279;-67
2021/03/10 04:50:10;;;;;;;49.20;17.25;;;;;;;17.20;25.47;155643.34;1622726;88;21383;-66
2021/03/10 04:52:43;;;;;;;52.20;20.57;;;;;;;17.09;25.58;155614.34;1594551;89;21161;-67
2021/03/10 04:55:16;;;;;;;52.45;19.15;;;;;;;17.07;25.59;155609.06;1598766;89;21438;-67
2021/03/10 04:57:49;;;;;;;59.85;20.62;;;;;;;17.15;25.59;155628.84;1622860;88;21360;-67
2021/03/10 05:00:22;;;;;;;56.73;19.27;;;;;;;17.30;25.55;155671.11;1593665;88;21269;-68
2021/03/10 05:02:55;;;;;;;62.43;19.12;;;;;;;17.29;25.67;155668.47;1616835;87;21387;-70
2021/03/10 05:05:28;;;;;;;74.07;23.35;;;;;;;17.33;25.68;155679.03;1582079;89;21434;-68
2021/03/10 05:08:00;;;;;;;72.22;23.75;;;;;;;17.39;25.68;155693.55;1594041;88;21428;-69
2021/03/10 05:10:33;;;;;;;70.75;25.62;;;;;;;17.45;25.73;155710.69;1622257;87;21229;-70
2021/03/10 05:13:06;;;;;;;67.55;25.35;;;;;;;17.44;25.79;155708.05;1609511;88;21259;-70
2021/03/10 05:15:38;;;;;;;85.90;25.37;;;;;;;17.55;25.80;155735.72;1621492;87;21423;-69
2021/03/10 05:18:11;;;;;;;73.83;24.70;;;;;;;17.61;25.86;155751.56;1584730;89;21354;-66
2021/03/10 05:20:46;;;;;;;72.85;23.70;;;;;;;17.74;25.80;155785.87;1595156;88;21424;-65
2021/03/10 05:23:18;;;;;;;73.25;24.60;;;;;;;17.75;25.88;155789.81;1626551;87;21398;-67
2021/03/10 05:25:50;;;;;;;80.77;27.10;;;;;;;17.92;25.94;155833.34;1630175;87;21383;-66
2021/03/10 05:28:23;;;;;;;87.45;28.30;;;;;;;18.07;25.85;155872.94;1656218;86;21301;-68
2021/03/10 05:30:55;;;;;;;75.10;26.25;;;;;;;18.12;25.86;155888.75;1633578;86;21430;-67
2021/03/10 05:36:45;;;;;;;87.27;30.17;;;;;;;18.35;25.85;155949.52;1774693;78;21709;-76
2021/03/10 05:39:18;;;;;;;97.85;28.45;;;;;;;18.40;25.94;155961.44;1738336;80;21178;-77
2021/03/10 05:41:51;;;;;;;97.82;28.85;;;;;;;18.53;25.97;155995.70;1705836;83;21326;-77
2021/03/10 05:44:24;;;;;;;91.20;27.52;;;;;;;18.65;25.95;156027.39;1737998;80;21779;-77
2021/03/10 05:46:57;;;;;;;73.10;24.70;;;;;;;18.80;25.93;156067.02;1709535;83;21171;-77
2021/03/10 05:49:29;;;;;;;68.62;24.25;;;;;;;18.88;25.94;156089.47;1781704;79;21252;-79
2021/03/10 05:52:09;;;;;;;68.52;22.67;;;;;;;19.13;25.81;156156.86;1774368;79;21823;-77
2021/03/10 05:54:44;;;;;;;;;;;;;;;19.24;25.73;156184.63;1779653;80;21166;-79
2021/03/10 05:57:16;;;;;;;58.73;20.40;;;;;;;19.24;25.79;156185.92;1769582;79;20192;-79
2021/03/10 05:59:49;;;;;;;54.63;20.30;;;;;;;19.35;25.85;156213.69;1783344;79;21751;-82
2021/03/10 06:02:22;;;;;;;54.25;20.72;;;;;;;19.70;25.69;156307.47;1776064;79;21313;-78
2021/03/10 06:04:55;;;;;;;52.05;18.25;;;;;;;19.87;25.63;156351.06;1782952;79;21266;-77
2021/03/10 06:07:27;;;;;;;48.45;17.60;;;;;;;19.71;25.76;156308.81;1784948;79;21780;-81
2021/03/10 06:10:02;;;;;;;47.78;15.78;;;;;;;19.82;25.67;156339.19;1773315;79;21811;-77
2021/03/10 06:12:47;;;;;;;69.53;25.95;;;;;;;19.87;25.34;156352.42;1774547;79;21844;-80
2021/03/10 06:15:20;;;;;;;108.42;33.70;;;;;;;19.87;25.10;156352.42;1775580;79;21309;-78
2021/03/10 06:17:52;;;;;;;842.73;242.82;;;;;;;19.96;25.00;156376.25;1776146;79;21229;-77
2021/03/10 06:20:27;;;;;;;496.40;159.50;;;;;;;19.97;24.72;156378.89;1780357;79;21800;-84
2021/03/10 06:23:00;;;;;;;322.12;108.75;;;;;;;20.11;24.60;156415.91;1773774;79;21316;-82
2021/03/10 06:25:37;;;;;;;112.52;45.17;;;;;;;20.22;24.47;156445.00;1775181;79;21209;-84
2021/03/10 06:28:10;;;;;;;63.13;26.37;;;;;;;20.45;24.34;156505.81;1771888;79;21190;-87
2021/03/10 06:30:45;;;;;;;41.95;21.50;;;;;;;20.36;24.36;156483.31;1775196;79;21175;-85
2021/03/10 06:33:23;;;;;;;22.90;10.05;;;;;;;20.35;24.65;156480.67;1757247;80;21180;-82
2021/03/10 06:35:57;;;;;;;17.20;8.58;;;;;;;20.52;24.33;156524.30;1777414;79;21183;-86
2021/03/10 06:38:30;;;;;;;14.73;6.60;;;;;;;20.67;24.15;156565.28;1782514;79;21178;-80
2021/03/10 06:41:03;;;;;;;11.33;5.55;;;;;;;20.84;23.89;156608.97;1785253;79;21263;-81
2021/03/10 06:43:42;;;;;;;14.73;5.28;;;;;;;20.97;23.54;156644.72;1781801;79;21313;-81
2021/03/10 06:46:20;;;;;;;14.38;5.10;;;;;;;21.09;23.30;156677.78;1767341;79;21375;-79
2021/03/10 06:48:57;;;;;;;15.48;4.90;;;;;;;21.08;23.15;156675.12;1781665;79;21166;-80
2021/03/10 06:51:37;;;;;;;8.93;4.12;;;;;;;21.18;23.44;156700.28;1784575;79;21411;-81
2021/03/10 06:54:20;;;;;;;8.78;4.42;;;;;;;21.26;23.19;156722.78;1740135;81;21364;-76
2021/03/10 06:57:07;;;;;;;9.78;4.47;;;;;;;21.38;22.75;156754.53;1712471;82;21839;-81
2021/03/10 06:59:48;;;;;;;14.85;6.03;;;;;;;21.62;22.66;156818.11;1749216;81;21333;-82
2021/03/10 07:02:34;;;;;;;9.03;4.37;;;;;;;21.68;22.37;156833.97;1746880;81;21332;-78
2021/03/10 07:05:08;;;;;;;9.60;4.58;;;;;;;21.64;22.50;156823.42;1721469;81;21178;-76
2021/03/10 07:07:42;;;;;;;6.92;3.20;;;;;;;21.70;22.57;156837.97;1747342;81;21375;-76
2021/03/10 07:10:18;;;;;;;7.78;4.08;;;;;;;21.83;22.03;156872.34;1750115;80;21693;-79
2021/03/10 07:12:51;;;;;;;6.37;3.52;;;;;;;21.75;21.92;156852.53;1724001;82;21286;-81
2021/03/10 07:15:30;;;;;;;7.70;3.62;;;;;;;21.69;22.09;156835.33;1715340;82;21318;-81
2021/03/10 07:18:12;;;;;;;7.70;3.35;;;;;;;21.73;22.09;156845.88;1745124;80;21721;-88
2021/03/10 07:20:53;;;;;;;6.85;2.10;;;;;;;21.94;22.11;156902.81;1744909;81;21175;-83
2021/03/10 07:23:31;;;;;;;9.75;3.17;;;;;;;22.06;21.83;156934.59;1744219;80;21182;-81
2021/03/10 07:26:11;;;;;;;8.25;3.12;;;;;;;22.23;21.75;156979.58;1722336;81;21321;-86
2021/03/10 07:29:09;;;;;;;6.47;3.55;;;;;;;22.41;21.57;157027.34;1711655;82;21393;-79
2021/03/10 07:31:59;;;;;;;4.87;3.22;;;;;;;22.54;21.11;157061.78;1740452;81;21314;-84
2021/03/10 07:34:40;;;;;;;7.37;2.55;;;;;;;22.51;21.03;157055.12;1709095;82;21309;-79
2021/03/10 07:37:18;;;;;;;6.28;3.00;;;;;;;22.61;20.99;157081.66;1740765;80;21728;-83
2021/03/10 07:39:52;;;;;;;5.90;2.55;;;;;;;22.75;20.86;157117.41;1742909;81;21301;-81
2021/03/10 07:42:24;;;;;;;6.55;2.95;;;;;;;22.69;20.81;157102.83;1744564;80;21297;-75
2021/03/10 07:44:57;;;;;;;9.33;3.72;;;;;;;22.85;20.81;157146.55;1745783;81;21357;-79
2021/03/10 07:47:31;;;;;;;5.95;3.27;;;;;;;23.02;20.70;157190.27;1747284;80;21336;-76
2021/03/10 07:50:04;;;;;;;10.08;3.12;;;;;;;23.17;20.86;157230.08;1745761;80;21333;-79
2021/03/10 07:52:48;;;;;;;8.28;2.67;;;;;;;23.49;20.49;157316.25;1742727;80;21191;-78
2021/03/10 07:55:18;;;;;;;6.87;2.25;;;;;;;23.18;20.65;157234.03;1697955;82;21334;-77
2021/03/10 07:57:55;;;;;;;3.05;1.75;;;;;;;23.12;19.90;157218.16;1746469;81;21170;-76
2021/03/10 08:00:38;;;;;;;7.08;2.37;;;;;;;22.99;20.00;157182.30;1743582;81;21977;-83
2021/03/10 08:03:27;;;;;;;2.55;1.85;;;;;;;22.97;20.10;157178.34;1716406;81;21750;-81
2021/03/10 08:06:13;;;;;;;6.42;2.52;;;;;;;23.07;20.08;157204.89;1747331;80;21356;-82
2021/03/10 08:08:51;;;;;;;3.22;1.92;;;;;;;23.18;20.36;157234.03;1697779;82;21415;-79
2021/03/10 08:11:44;;;;;;;2.37;1.75;;;;;;;23.18;19.88;157232.73;1748614;81;21186;-83
2021/03/10 08:14:33;;;;;;;2.55;1.90;;;;;;;23.06;20.00;157202.23;1716626;82;22206;-83
2021/03/10 08:17:26;;;;;;;3.70;1.87;;;;;;;23.12;20.25;157216.81;1744545;80;21321;-76
2021/03/10 08:20:07;;;;;;;4.60;2.15;;;;;;;23.35;20.10;157279.13;1713808;82;21170;-79
2021/03/10 08:22:45;;;;;;;5.28;2.42;;;;;;;23.41;19.81;157295.00;1749413;80;21347;-80
2021/03/10 08:25:18;;;;;;;3.08;1.90;;;;;;;23.42;19.68;157297.66;1752715;80;21214;-75
2021/03/10 08:27:51;;;;;;;2.60;1.75;;;;;;;23.28;19.78;157260.53;1752086;81;21364;-74
2021/03/10 08:30:25;;;;;;;2.92;2.30;;;;;;;23.16;19.88;157228.73;1742893;81;21341;-76
2021/03/10 08:33:10;;;;;;;2.62;2.08;;;;;;;23.16;19.92;157228.73;1699964;82;21376;-78
2021/03/10 08:35:51;;;;;;;3.20;1.62;;;;;;;23.56;19.40;157334.78;1743455;80;21300;-77
2021/03/10 08:38:31;;;;;;;8.00;2.12;;;;;;;25.56;19.15;157866.91;1743469;81;21340;-75
2021/03/10 08:41:08;;;;;;;4.10;2.00;;;;;;;27.97;18.38;158511.67;1714033;82;21720;-77
2021/03/10 08:43:41;;;;;;;4.58;2.30;;;;;;;29.70;17.20;158976.33;1746684;80;21324;-76
2021/03/10 08:46:15;;;;;;;4.95;2.12;;;;;;;30.61;16.71;159218.97;1717239;82;21159;-75
2021/03/10 08:48:56;;;;;;;5.97;2.20;;;;;;;31.69;17.01;159509.70;1750212;80;21432;-77
2021/03/10 08:51:39;;;;;;;5.10;1.98;;;;;;;33.06;16.37;159875.45;1723483;82;21250;-82
2021/03/10 08:54:19;;;;;;;3.67;2.75;;;;;;;33.72;15.86;160053.17;1726283;82;21222;-79
2021/03/10 08:57:05;;;;;;;4.87;2.37;;;;;;;34.55;15.86;160276.34;1745493;80;21321;-74
2021/03/10 08:59:40;;;;;;;3.83;1.60;;;;;;;35.38;15.66;160499.75;1740811;81;21183;-75
2021/03/10 09:02:14;;;;;;;2.90;1.67;;;;;;;35.99;15.04;160663.05;1737588;81;21682;-86
2021/03/10 09:04:51;;;;;;;3.65;1.67;;;;;;;36.16;14.51;160711.19;1751410;80;21163;-81
2021/03/10 09:07:29;;;;;;;2.37;1.62;;;;;;;36.45;14.62;160787.50;1723317;81;21321;-82
2021/03/10 09:10:15;;;;;;;2.90;1.87;;;;;;;36.80;14.00;160881.20;1725413;81;21270;-80
2021/03/10 09:12:49;;;;;;;3.22;2.02;;;;;;;36.45;13.98;160788.88;1718801;82;21317;-85
2021/03/10 09:15:28;;;;;;;4.67;2.00;;;;;;;36.60;14.51;160829.00;1730497;83;21207;-84
2021/03/10 09:18:07;;;;;;;2.77;1.80;;;;;;;37.12;13.86;160969.59;1730877;82;21373;-80
2021/03/10 09:20:44;;;;;;;5.33;1.87;;;;;;;37.66;13.50;161112.94;1734487;82;21166;-81
2021/03/10 09:23:27;;;;;;;7.87;4.22;;;;;;;37.44;13.30;161054.02;1731444;82;21242;-81
2021/03/10 09:26:01;;;;;;;4.08;2.92;;;;;;;36.79;13.38;160879.87;1714964;82;21342;-82
2021/03/10 09:28:44;;;;;;;3.75;2.15;;;;;;;36.69;13.28;160853.08;1711373;83;21325;-81
2021/03/10 09:31:30;;;;;;;3.10;1.85;;;;;;;36.19;13.55;160719.23;1716414;83;21174;-83
2021/03/10 09:34:06;;;;;;;3.15;1.57;;;;;;;36.35;13.39;160760.70;1714308;83;21821;-83
2021/03/10 09:36:41;;;;;;;2.85;1.57;;;;;;;36.16;13.44;160709.87;1713809;83;21210;-82
2021/03/10 09:39:16;;;;;;;5.87;2.02;;;;;;;35.79;13.53;160609.45;1713707;83;21321;-81
2021/03/10 09:41:53;;;;;;;2.17;1.55;;;;;;;35.46;13.64;160521.13;1723886;82;21239;-80
2021/03/10 09:44:27;;;;;;;3.72;2.08;;;;;;;35.75;13.70;160600.09;1780708;80;21312;-85
2021/03/10 09:47:01;;;;;;;3.58;1.90;;;;;;;36.39;13.42;160772.75;1784043;80;21360;-80
2021/03/10 09:49:35;;;;;;;3.27;1.60;;;;;;;36.73;13.21;160863.80;1784692;80;21298;-78
2021/03/10 09:52:09;;;;;;;5.03;1.92;;;;;;;36.54;13.33;160812.95;1736419;81;21167;-88
2021/03/10 09:54:54;;;;;;;4.15;2.20;;;;;;;36.56;13.33;160816.95;1739141;82;21195;-84
2021/03/10 09:57:29;;;;;;;3.10;1.60;;;;;;;36.93;13.14;160916.06;1753868;80;21297;-79
2021/03/10 10:00:02;;;;;;;4.72;1.80;;;;;;;37.42;13.16;161050.03;1754548;80;21310;-76
2021/03/10 10:02:41;;;;;;;5.67;1.75;;;;;;;37.79;12.84;161149.12;1763891;80;21214;-79
2021/03/10 10:05:22;;;;;;;2.55;1.90;;;;;;;37.86;12.81;161166.55;1735932;80;21324;-85
2021/03/10 10:07:57;;;;;;;3.55;1.65;;;;;;;38.06;12.70;161222.86;1734592;82;21340;-82
2021/03/10 10:10:30;;;;;;;3.58;1.90;;;;;;;38.68;12.83;161387.77;1732785;80;21321;-85
2021/03/10 10:13:03;;;;;;;4.10;1.80;;;;;;;39.16;12.63;161517.81;1754389;81;21202;-83
2021/03/10 10:15:37;;;;;;;5.20;2.20;;;;;;;39.24;12.30;161540.63;1753282;80;21772;-85
2021/03/10 10:18:11;;;;;;;2.40;1.70;;;;;;;39.20;12.25;161529.88;1779027;80;21160;-85
2021/03/10 10:20:45;;;;;;;2.40;1.30;;;;;;;39.91;12.41;161720.36;1786972;80;21210;-83
2021/03/10 10:23:19;;;;;;;4.95;1.90;;;;;;;40.77;11.85;161952.61;1737487;80;21190;-79
2021/03/10 10:26:01;;;;;;;5.03;2.03;;;;;;;40.97;11.65;162007.64;1736353;82;21332;-81
2021/03/10 10:28:35;;;;;;;4.97;2.20;;;;;;;40.80;11.57;161960.67;1749405;80;21284;-79
2021/03/10 10:31:09;;;;;;;6.08;2.02;;;;;;;40.97;11.55;162006.33;1724749;81;21209;-79
2021/03/10 10:33:42;;;;;;;4.40;2.30;;;;;;;41.21;11.44;162070.75;1771200;81;21161;-81
2021/03/10 10:36:15;;;;;;;4.60;2.15;;;;;;;41.05;11.35;162027.78;1770624;81;21183;-75
2021/03/10 10:38:49;;;;;;;3.40;1.85;;;;;;;40.93;11.44;161995.58;1770948;81;21187;-73
2021/03/10 10:41:22;;;;;;;4.12;1.77;;;;;;;41.41;11.50;162124.50;1763294;80;21691;-71
2021/03/10 10:43:54;;;;;;;3.70;1.62;;;;;;;41.25;11.43;162081.52;1788752;80;21853;-70
2021/03/10 10:46:27;;;;;;;4.55;2.33;;;;;;;40.03;11.46;161752.59;1789333;80;21234;-71
2021/03/10 10:49:00;;;;;;;5.00;1.98;;;;;;;39.45;11.70;161595.61;1789852;80;21298;-69
2021/03/10 10:51:34;;;;;;;4.03;2.45;;;;;;;39.23;12.00;161537.94;1765693;80;21286;-69
2021/03/10 10:54:08;;;;;;;7.20;2.40;;;;;;;39.88;11.98;161710.97;1789705;80;21804;-69
2021/03/10 10:56:42;;;;;;;5.67;2.40;;;;;;;40.51;11.47;161881.44;1777873;80;21286;-69
2021/03/10 10:59:15;;;;;;;7.85;2.75;;;;;;;40.77;11.30;161951.28;1731532;83;21186;-69
2021/03/10 11:01:49;;;;;;;13.43;10.18;;;;;;;40.87;11.43;161978.13;1765593;80;21304;-74
2021/03/10 11:04:21;;;;;;;4.08;2.47;;;;;;;41.50;11.18;162148.66;1735067;80;21848;-69
2021/03/10 11:06:55;;;;;;;3.15;2.10;;;;;;;42.16;11.01;162328.69;1734667;83;21305;-69
2021/03/10 11:09:27;;;;;;;3.65;1.80;;;;;;;42.31;10.92;162367.63;1709944;83;21170;-69
2021/03/10 11:12:01;;;;;;;4.60;1.87;;;;;;;41.92;10.91;162264.16;1762742;80;21322;-69
2021/03/10 11:14:35;;;;;;;2.12;1.77;;;;;;;41.67;11.12;162194.37;1789870;80;21286;-69
2021/03/10 11:17:09;;;;;;;4.95;2.05;;;;;;;41.92;10.99;162262.84;1790127;79;21207;-69
2021/03/10 11:19:43;;;;;;;3.27;1.80;;;;;;;42.55;11.04;162433.53;1789589;80;21294;-69
2021/03/10 11:22:17;;;;;;;4.60;2.00;;;;;;;43.47;10.70;162680.89;1760152;80;21799;-69
2021/03/10 11:24:50;;;;;;;3.83;1.85;;;;;;;43.96;10.63;162814.08;1737276;80;21725;-69
2021/03/10 11:27:23;;;;;;;2.77;1.65;;;;;;;44.16;10.55;162867.84;1717276;82;21179;-69
2021/03/10 11:29:56;;;;;;;3.42;1.72;;;;;;;43.72;10.31;162748.17;1741044;80;21360;-69
2021/03/10 11:32:28;;;;;;;2.77;1.77;;;;;;;43.04;10.30;162565.27;1777781;80;21317;-69
2021/03/10 11:35:01;;;;;;;5.08;2.02;;;;;;;42.12;10.48;162317.97;1789387;79;21183;-69
2021/03/10 11:37:33;;;;;;;3.60;1.65;;;;;;;42.11;10.66;162315.28;1760062;80;21234;-69
2021/03/10 11:40:07;;;;;;;3.77;1.77;;;;;;;42.58;10.66;162441.61;1737458;82;21717;-69
2021/03/10 11:42:42;;;;;;;4.03;2.22;;;;;;;42.88;10.52;162522.25;1740768;80;21804;-69
2021/03/10 11:45:15;;;;;;;3.15;1.80;;;;;;;42.44;10.56;162402.61;1793692;79;21293;-69
2021/03/10 11:47:47;;;;;;;3.70;1.90;;;;;;;42.12;10.82;162316.59;1790533;79;21155;-69
2021/03/10 11:50:20;;;;;;;4.33;2.12;;;;;;;42.39;10.56;162389.20;1789833;80;21305;-69
2021/03/10 11:52:52;;;;;;;2.35;1.80;;;;;;;41.88;10.77;162253.45;1789639;79;21336;-69
2021/03/10 11:55:24;;;;;;;3.27;1.65;;;;;;;41.74;10.92;162213.16;1789817;80;21813;-70
2021/03/10 11:57:57;;;;;;;2.12;1.80;;;;;;;41.40;10.74;162121.81;1781046;79;21400;-69